Time;durP1;ratioP1;P1;durP2;ratioP2;P2;SDS_P1;SDS_P2;PMS_P1;PMS_P2;Temp;Humidity;BMP_temperature;BMP_pressure;BME280_temperature;BME280_humidity;BME280_pressure;Samples;Min_cycle;Max_cycle;Signal;HPM_P1;HPM_P2
2022/01/06 00:01:52;;;;;;;8.85;4.38;;;5.90;77.70;;;;;;4995748;28;20236;-70
2022/01/06 00:04:20;;;;;;;11.48;4.00;;;5.90;77.50;;;;;;4996245;28;20269;-69
2022/01/06 00:06:48;;;;;;;6.53;3.65;;;5.90;77.80;;;;;;4995966;28;20210;-69
2022/01/06 00:09:18;;;;;;;8.60;4.22;;;5.90;77.80;;;;;;4991438;28;20222;-69
2022/01/06 00:11:46;;;;;;;17.63;4.68;;;5.90;77.70;;;;;;4994360;28;21077;-65
2022/01/06 00:14:22;;;;;;;12.35;4.90;;;5.90;77.80;;;;;;4994624;28;20198;-67
2022/01/06 00:17:04;;;;;;;9.45;3.92;;;5.90;77.80;;;;;;4997050;28;20228;-69
2022/01/06 00:25:03;;;;;;;9.23;4.07;;;5.80;78.00;;;;;;4993552;28;20218;-70
2022/01/06 00:27:31;;;;;;;12.88;5.60;;;5.80;78.30;;;;;;4994174;28;20234;-71
2022/01/06 00:30:01;;;;;;;8.38;4.70;;;5.80;78.10;;;;;;4995680;28;20226;-70
2022/01/06 00:32:29;;;;;;;11.82;5.05;;;5.70;78.20;;;;;;4994925;28;20715;-68
2022/01/06 00:34:57;;;;;;;12.63;5.00;;;5.70;78.50;;;;;;4995758;28;20264;-68
2022/01/06 00:37:25;;;;;;;12.75;5.10;;;5.70;78.40;;;;;;4995553;28;20215;-67
2022/01/06 00:39:52;;;;;;;10.43;4.93;;;5.70;78.50;;;;;;4992991;28;20284;-66
2022/01/06 00:42:20;;;;;;;11.00;5.32;;;5.70;78.50;;;;;;4992685;28;20237;-66
2022/01/06 00:44:48;;;;;;;10.65;4.65;;;5.70;79.00;;;;;;4994247;28;20229;-69
2022/01/06 00:47:20;;;;;;;10.68;4.70;;;5.60;78.70;;;;;;4994241;28;20242;-67
2022/01/06 00:49:48;;;;;;;13.75;5.13;;;5.70;78.50;;;;;;4990389;28;20230;-69
2022/01/06 00:52:16;;;;;;;8.82;4.72;;;5.70;79.00;;;;;;4989075;28;20260;-69
2022/01/06 00:54:44;;;;;;;13.25;5.00;;;5.70;79.20;;;;;;4995924;28;20881;-70
2022/01/06 00:57:13;;;;;;;11.55;5.60;;;5.70;79.10;;;;;;4994953;28;20253;-70
2022/01/06 00:59:41;;;;;;;7.30;4.82;;;5.80;79.20;;;;;;4997095;28;20223;-68
2022/01/06 01:02:09;;;;;;;7.45;4.70;;;5.80;79.40;;;;;;4987707;28;20241;-69
2022/01/06 01:04:38;;;;;;;9.10;5.30;;;5.90;79.40;;;;;;4994973;28;20210;-67
2022/01/06 01:07:06;;;;;;;7.63;5.15;;;5.90;79.60;;;;;;4994751;28;20217;-68
2022/01/06 01:09:35;;;;;;;9.40;5.35;;;5.90;79.20;;;;;;4974918;28;20284;-67
2022/01/06 01:12:04;;;;;;;10.52;4.68;;;5.80;79.80;;;;;;4988945;28;20206;-69
2022/01/06 01:14:43;;;;;;;11.07;5.35;;;5.80;79.50;;;;;;4996180;28;20312;-69
2022/01/06 01:17:15;;;;;;;8.27;4.88;;;5.80;79.50;;;;;;4993134;28;20241;-70
2022/01/06 01:19:45;;;;;;;9.52;5.35;;;5.80;79.60;;;;;;4993255;28;20719;-70
2022/01/06 01:22:12;;;;;;;9.45;5.40;;;5.80;79.60;;;;;;4994034;28;20209;-66
2022/01/06 01:24:40;;;;;;;10.77;5.05;;;5.80;79.50;;;;;;4997678;28;20323;-68
2022/01/06 01:27:09;;;;;;;8.73;4.78;;;5.80;79.60;;;;;;4998267;28;20252;-67
2022/01/06 01:29:45;;;;;;;9.57;4.93;;;5.80;79.60;;;;;;4988065;28;20619;-67
2022/01/06 01:32:13;;;;;;;9.52;5.63;;;5.90;79.60;;;;;;4995923;28;20758;-67
2022/01/06 01:34:44;;;;;;;10.65;5.25;;;5.90;79.70;;;;;;4995509;28;20202;-67
2022/01/06 01:37:14;;;;;;;8.80;4.55;;;6.00;79.80;;;;;;4993419;28;20300;-68
2022/01/06 01:39:41;;;;;;;9.00;5.00;;;6.00;80.00;;;;;;4993690;28;20293;-69
2022/01/06 01:42:10;;;;;;;9.68;5.43;;;6.00;79.90;;;;;;4991434;28;20209;-68
2022/01/06 01:44:38;;;;;;;8.05;4.70;;;6.00;79.60;;;;;;4993297;28;20207;-67
2022/01/06 01:47:13;;;;;;;15.10;5.25;;;6.00;79.70;;;;;;4989572;28;20228;-67
2022/01/06 01:49:49;;;;;;;11.35;4.68;;;6.00;79.80;;;;;;4993325;28;20782;-67
2022/01/06 01:52:18;;;;;;;8.02;4.65;;;6.00;79.80;;;;;;5000483;28;20201;-67
2022/01/06 01:54:46;;;;;;;12.80;4.53;;;6.00;79.80;;;;;;4994661;28;20638;-69
2022/01/06 01:57:14;;;;;;;16.92;4.70;;;6.00;79.90;;;;;;4996663;28;20267;-66
2022/01/06 01:59:44;;;;;;;7.30;4.10;;;6.00;79.80;;;;;;4999217;28;20227;-69
2022/01/06 02:02:12;;;;;;;8.48;4.88;;;6.10;79.90;;;;;;4995006;28;20270;-67
2022/01/06 02:04:40;;;;;;;9.63;4.93;;;6.10;80.00;;;;;;4993809;28;20198;-68
2022/01/06 02:07:08;;;;;;;9.23;4.85;;;6.10;79.90;;;;;;4994534;28;20276;-68
2022/01/06 02:09:37;;;;;;;9.10;4.93;;;6.10;80.00;;;;;;4998713;28;20875;-67
2022/01/06 02:12:06;;;;;;;7.22;4.10;;;6.10;79.90;;;;;;4995484;28;20213;-67
2022/01/06 02:14:35;;;;;;;7.95;4.10;;;6.20;80.00;;;;;;4993585;28;20206;-67
2022/01/06 02:17:03;;;;;;;10.38;4.55;;;6.20;80.10;;;;;;4996593;28;20230;-66
2022/01/06 02:19:31;;;;;;;7.30;4.15;;;6.20;80.00;;;;;;4994168;28;20229;-68
2022/01/06 02:22:00;;;;;;;9.50;4.45;;;6.20;80.10;;;;;;4985824;28;20198;-69
2022/01/06 02:24:28;;;;;;;9.80;4.43;;;6.20;79.90;;;;;;4996044;28;20207;-69
2022/01/06 02:26:56;;;;;;;8.50;5.13;;;6.10;79.90;;;;;;4995500;28;20215;-68
2022/01/06 02:29:24;;;;;;;15.90;5.05;;;6.10;80.10;;;;;;4997227;28;20238;-69
2022/01/06 02:31:52;;;;;;;15.32;5.10;;;6.10;80.00;;;;;;4996059;28;20882;-67
2022/01/06 02:34:20;;;;;;;10.68;4.55;;;6.10;80.00;;;;;;4995266;28;20212;-68
2022/01/06 02:36:48;;;;;;;10.07;4.43;;;6.10;80.00;;;;;;4993922;28;20206;-69
2022/01/06 02:39:17;;;;;;;9.88;4.65;;;6.10;80.20;;;;;;4997263;28;20226;-69
2022/01/06 02:41:45;;;;;;;9.30;4.70;;;6.10;80.10;;;;;;4999043;28;20210;-67
2022/01/06 02:44:13;;;;;;;8.10;4.25;;;6.10;80.10;;;;;;4998645;28;20271;-67
2022/01/06 02:46:41;;;;;;;10.10;3.80;;;6.10;80.10;;;;;;4990906;28;20223;-66
2022/01/06 02:49:12;;;;;;;14.02;4.85;;;6.10;80.00;;;;;;4991111;28;20261;-69
2022/01/06 02:51:41;;;;;;;8.82;4.45;;;6.10;80.00;;;;;;4993244;28;20881;-67
2022/01/06 02:54:09;;;;;;;7.55;4.25;;;6.10;80.00;;;;;;4993959;28;20211;-71
2022/01/06 02:56:39;;;;;;;8.80;4.55;;;6.10;80.10;;;;;;4998433;28;20201;-67
2022/01/06 02:59:06;;;;;;;9.50;4.85;;;6.10;80.10;;;;;;4995685;28;20204;-68
2022/01/06 03:01:39;;;;;;;13.82;4.85;;;6.10;80.10;;;;;;4983873;28;20274;-66
2022/01/06 03:04:07;;;;;;;11.60;3.88;;;6.10;80.10;;;;;;4994952;28;20206;-69
2022/01/06 03:06:36;;;;;;;7.28;4.18;;;6.10;80.10;;;;;;5001860;28;20222;-69
2022/01/06 03:09:04;;;;;;;14.05;4.50;;;6.10;80.00;;;;;;4998937;28;20675;-68
2022/01/06 03:11:33;;;;;;;9.18;4.22;;;6.10;80.10;;;;;;4994728;28;20206;-66
2022/01/06 03:14:02;;;;;;;9.15;4.28;;;6.10;80.20;;;;;;4994793;28;20214;-66
2022/01/06 03:16:30;;;;;;;7.60;4.05;;;6.10;80.20;;;;;;4991911;28;20229;-69
2022/01/06 03:18:58;;;;;;;11.18;4.28;;;6.10;80.20;;;;;;4996050;28;20230;-67
2022/01/06 03:21:26;;;;;;;13.38;4.20;;;6.10;80.20;;;;;;4989965;28;20645;-68
2022/01/06 03:23:54;;;;;;;8.65;4.95;;;6.10;80.20;;;;;;4994722;28;20205;-69
2022/01/06 03:26:22;;;;;;;7.70;4.38;;;6.20;80.20;;;;;;4984408;28;20272;-68
2022/01/06 03:28:50;;;;;;;9.00;4.20;;;6.20;80.10;;;;;;4992847;28;20210;-68
2022/01/06 03:31:19;;;;;;;11.52;4.47;;;6.20;80.00;;;;;;4997922;28;20364;-68
2022/01/06 03:33:47;;;;;;;10.07;4.50;;;6.20;79.80;;;;;;4994574;28;20222;-68
2022/01/06 03:36:15;;;;;;;7.25;4.30;;;6.10;79.80;;;;;;4995289;28;20194;-69
2022/01/06 03:38:43;;;;;;;8.82;4.50;;;6.10;79.80;;;;;;4995587;28;20218;-69
2022/01/06 03:41:11;;;;;;;8.95;4.40;;;6.00;79.80;;;;;;4996194;28;20225;-68
2022/01/06 03:43:39;;;;;;;12.60;5.20;;;6.00;79.90;;;;;;4996283;28;20206;-69
2022/01/06 03:46:07;;;;;;;9.00;4.60;;;6.00;79.90;;;;;;4996877;28;20356;-67
2022/01/06 03:48:37;;;;;;;13.18;4.90;;;6.00;80.00;;;;;;4997512;28;20207;-68
2022/01/06 03:51:05;;;;;;;14.82;4.57;;;6.00;80.00;;;;;;4998523;28;20249;-68
2022/01/06 03:53:32;;;;;;;10.27;3.85;;;6.00;80.20;;;;;;4995478;28;20206;-68
2022/01/06 03:56:00;;;;;;;9.15;3.88;;;6.00;80.10;;;;;;4992534;28;20208;-68
2022/01/06 03:58:28;;;;;;;9.50;3.88;;;6.10;80.10;;;;;;4994216;28;20222;-69
2022/01/06 04:00:56;;;;;;;10.23;4.10;;;6.10;79.90;;;;;;4992969;28;20246;-67
2022/01/06 04:03:24;;;;;;;6.90;3.60;;;6.00;79.90;;;;;;4996238;28;20667;-67
2022/01/06 04:05:55;;;;;;;8.40;3.55;;;6.00;79.90;;;;;;5001133;28;20258;-67
2022/01/06 04:08:23;;;;;;;18.33;4.25;;;6.00;79.70;;;;;;4995091;28;20276;-66
2022/01/06 04:10:51;;;;;;;8.95;3.97;;;6.00;79.80;;;;;;4991858;28;20269;-67
2022/01/06 04:13:19;;;;;;;11.05;4.45;;;5.90;79.70;;;;;;4995771;28;20283;-66
2022/01/06 04:15:47;;;;;;;8.95;3.92;;;5.90;79.60;;;;;;4996940;28;20233;-66
2022/01/06 04:18:15;;;;;;;11.40;4.00;;;5.90;79.80;;;;;;4997454;28;20190;-66
2022/01/06 04:20:43;;;;;;;10.25;3.97;;;5.80;79.90;;;;;;4996075;28;20240;-67
2022/01/06 04:23:12;;;;;;;8.55;3.70;;;5.80;80.00;;;;;;4992359;28;20217;-68
2022/01/06 04:25:40;;;;;;;13.25;4.25;;;5.90;80.00;;;;;;4996033;28;20214;-68
2022/01/06 04:28:08;;;;;;;6.75;3.88;;;5.90;80.00;;;;;;4993182;28;20702;-68
2022/01/06 04:30:36;;;;;;;11.82;3.97;;;5.90;79.90;;;;;;4984377;28;20249;-66
2022/01/06 04:33:04;;;;;;;12.18;3.90;;;5.90;79.90;;;;;;4995995;28;20218;-67
2022/01/06 04:35:33;;;;;;;7.47;3.47;;;5.90;79.90;;;;;;4998066;28;21358;-68
2022/01/06 04:38:01;;;;;;;8.27;4.40;;;6.00;79.90;;;;;;4989327;28;20218;-66
2022/01/06 04:40:30;;;;;;;10.73;4.20;;;6.00;79.90;;;;;;5000647;28;20295;-70
2022/01/06 04:42:58;;;;;;;9.68;3.90;;;5.90;79.80;;;;;;4998924;28;20788;-67
2022/01/06 04:45:26;;;;;;;10.60;4.20;;;5.90;79.90;;;;;;4983943;28;20218;-69
2022/01/06 04:47:54;;;;;;;11.32;4.30;;;5.90;79.80;;;;;;4994180;28;20998;-67
2022/01/06 04:50:22;;;;;;;9.57;4.43;;;5.90;79.80;;;;;;4997583;28;20827;-68
2022/01/06 04:52:50;;;;;;;9.05;3.90;;;5.90;79.80;;;;;;4996270;28;20206;-68
2022/01/06 04:55:18;;;;;;;8.85;3.85;;;5.90;79.90;;;;;;4993503;28;20211;-69
2022/01/06 04:57:47;;;;;;;12.38;3.92;;;5.90;79.80;;;;;;5001380;28;20206;-68
2022/01/06 05:00:16;;;;;;;7.80;3.55;;;5.80;79.60;;;;;;5001795;28;20739;-68
2022/01/06 05:02:44;;;;;;;9.32;3.50;;;5.80;79.60;;;;;;4998001;28;20213;-68
2022/01/06 05:05:13;;;;;;;8.57;4.20;;;5.80;79.80;;;;;;4998797;28;20244;-68
2022/01/06 05:07:41;;;;;;;8.40;4.18;;;5.70;79.60;;;;;;4996348;28;20852;-69
2022/01/06 05:10:10;;;;;;;9.60;4.35;;;5.70;79.70;;;;;;4999776;28;20238;-68
2022/01/06 05:12:40;;;;;;;7.28;3.88;;;5.70;79.80;;;;;;4988218;28;20297;-67
2022/01/06 05:15:10;;;;;;;10.50;3.70;;;5.70;79.90;;;;;;5000373;28;20211;-68
2022/01/06 05:17:38;;;;;;;8.48;3.97;;;5.60;79.80;;;;;;4999326;28;20291;-68
2022/01/06 05:20:08;;;;;;;8.50;3.50;;;5.60;79.70;;;;;;4998537;28;20374;-68
2022/01/06 05:22:42;;;;;;;11.60;4.00;;;5.50;79.70;;;;;;4998110;28;20206;-69
2022/01/06 05:25:10;;;;;;;12.25;4.05;;;5.50;79.80;;;;;;4999235;28;20202;-69
2022/01/06 05:27:39;;;;;;;11.55;4.20;;;5.50;79.90;;;;;;5002381;28;20229;-68
2022/01/06 05:30:08;;;;;;;11.82;4.20;;;5.50;79.90;;;;;;4988065;28;20233;-68
2022/01/06 05:32:37;;;;;;;9.25;3.90;;;5.50;79.90;;;;;;4996067;28;20267;-69
2022/01/06 05:35:06;;;;;;;12.57;4.40;;;5.50;80.10;;;;;;5000915;28;20205;-66
2022/01/06 05:37:34;;;;;;;11.52;4.65;;;5.50;80.10;;;;;;5000657;28;20217;-68
2022/01/06 05:40:02;;;;;;;8.82;4.15;;;5.60;80.00;;;;;;4987170;28;20313;-69
2022/01/06 05:42:30;;;;;;;14.52;4.97;;;5.60;80.10;;;;;;4998069;28;20598;-69
2022/01/06 05:44:58;;;;;;;10.30;4.05;;;5.60;80.10;;;;;;5000084;28;20209;-69
2022/01/06 05:47:26;;;;;;;14.80;4.25;;;5.70;80.10;;;;;;4995934;28;20234;-69
2022/01/06 05:49:55;;;;;;;9.68;4.20;;;5.70;80.00;;;;;;4994877;28;20244;-69
2022/01/06 05:52:23;;;;;;;10.05;3.80;;;5.70;80.00;;;;;;4990709;28;20268;-69
2022/01/06 05:54:51;;;;;;;10.10;3.92;;;5.70;79.90;;;;;;5000852;28;20213;-68
2022/01/06 05:57:19;;;;;;;5.55;4.15;;;5.70;80.00;;;;;;4998275;28;20202;-69
2022/01/06 05:59:48;;;;;;;14.50;4.40;;;5.70;79.90;;;;;;4998234;28;20249;-69
2022/01/06 06:02:16;;;;;;;14.65;5.47;;;5.70;79.90;;;;;;4998744;28;20230;-68
2022/01/06 06:04:45;;;;;;;12.07;4.53;;;5.70;80.00;;;;;;4998795;28;20208;-68
2022/01/06 06:07:17;;;;;;;11.73;4.55;;;5.70;80.00;;;;;;4981063;28;20269;-69
2022/01/06 06:09:45;;;;;;;9.57;3.92;;;5.70;80.00;;;;;;5000457;28;20235;-69
2022/01/06 06:12:13;;;;;;;19.77;5.38;;;5.70;80.00;;;;;;4983616;28;20210;-69
2022/01/06 06:14:41;;;;;;;10.77;4.18;;;5.70;80.00;;;;;;4998952;28;20258;-68
2022/01/06 06:17:09;;;;;;;18.95;5.10;;;5.70;79.90;;;;;;4997487;28;20229;-68
2022/01/06 06:19:37;;;;;;;10.55;4.30;;;5.70;79.90;;;;;;4987227;28;20238;-68
2022/01/06 06:22:05;;;;;;;14.75;4.47;;;5.70;79.90;;;;;;4996028;28;20209;-68
2022/01/06 06:24:34;;;;;;;9.85;4.25;;;5.70;79.90;;;;;;4997846;28;20202;-68
2022/01/06 06:27:03;;;;;;;9.80;3.80;;;5.70;80.00;;;;;;4991743;28;20221;-67
2022/01/06 06:29:31;;;;;;;10.70;4.10;;;5.80;80.00;;;;;;4986422;28;20238;-69
2022/01/06 06:31:59;;;;;;;11.50;3.95;;;5.80;79.90;;;;;;4999327;28;20222;-66
2022/01/06 06:34:27;;;;;;;7.03;3.75;;;5.80;79.90;;;;;;4998826;28;20214;-68
2022/01/06 06:36:55;;;;;;;16.38;4.43;;;5.80;79.80;;;;;;4997230;28;20240;-68
2022/01/06 06:39:23;;;;;;;14.40;3.83;;;5.80;79.90;;;;;;4996271;28;20243;-69
2022/01/06 06:41:52;;;;;;;15.00;5.10;;;5.80;79.90;;;;;;4994850;28;20198;-69
2022/01/06 06:44:20;;;;;;;11.55;4.45;;;5.80;79.90;;;;;;4994604;28;20206;-69
2022/01/06 06:46:48;;;;;;;10.98;4.43;;;5.80;79.90;;;;;;4993744;28;20242;-69
2022/01/06 06:49:16;;;;;;;14.95;4.40;;;5.80;79.90;;;;;;4994537;28;20233;-68
2022/01/06 06:51:44;;;;;;;21.42;4.65;;;5.80;79.80;;;;;;4999030;28;20193;-67
2022/01/06 06:54:13;;;;;;;11.93;4.03;;;5.80;79.60;;;;;;4997510;28;20676;-68
2022/01/06 06:56:41;;;;;;;9.65;4.38;;;5.80;79.80;;;;;;4994693;28;20203;-69
2022/01/06 06:59:11;;;;;;;11.07;4.88;;;5.80;79.90;;;;;;4998151;28;20205;-67
2022/01/06 07:01:39;;;;;;;12.80;4.90;;;5.80;79.80;;;;;;4994140;28;20237;-67
2022/01/06 07:04:07;;;;;;;9.48;3.97;;;5.80;79.80;;;;;;4989008;28;20574;-68
2022/01/06 07:06:35;;;;;;;24.92;4.85;;;5.80;79.60;;;;;;4996495;28;20197;-66
2022/01/06 07:09:03;;;;;;;10.57;3.53;;;5.80;79.80;;;;;;4999865;28;20222;-68
2022/01/06 07:11:31;;;;;;;12.35;3.95;;;5.70;79.60;;;;;;4997558;28;20202;-69
2022/01/06 07:13:59;;;;;;;9.40;3.90;;;5.70;79.80;;;;;;4993377;28;20206;-68
2022/01/06 07:16:28;;;;;;;12.90;4.25;;;5.80;79.80;;;;;;4988619;28;20226;-67
2022/01/06 07:18:56;;;;;;;14.52;4.07;;;5.70;79.60;;;;;;4994272;28;20225;-69
2022/01/06 07:21:24;;;;;;;17.58;4.47;;;5.70;79.70;;;;;;4997185;28;20277;-70
2022/01/06 07:23:53;;;;;;;11.85;3.90;;;5.70;79.70;;;;;;4993747;28;20663;-66
2022/01/06 07:26:21;;;;;;;12.55;4.18;;;5.70;79.70;;;;;;4976838;28;20261;-68
2022/01/06 07:28:49;;;;;;;14.60;4.45;;;5.70;79.70;;;;;;4999165;28;20221;-68
2022/01/06 07:31:17;;;;;;;9.07;3.60;;;5.60;79.80;;;;;;4983839;28;20240;-68
2022/01/06 07:33:46;;;;;;;9.73;4.18;;;5.60;79.80;;;;;;4995090;28;20851;-67
2022/01/06 07:36:14;;;;;;;11.25;4.10;;;5.60;79.90;;;;;;4993876;28;20212;-67
2022/01/06 07:38:42;;;;;;;9.10;4.10;;;5.70;80.00;;;;;;4996035;28;20246;-68
2022/01/06 07:41:10;;;;;;;16.80;5.75;;;5.70;79.90;;;;;;4995696;28;20807;-68
2022/01/06 07:43:38;;;;;;;11.70;4.78;;;5.70;79.60;;;;;;4992916;28;20202;-69
2022/01/06 07:46:07;;;;;;;10.30;3.83;;;5.70;79.60;;;;;;4989050;28;20356;-67
2022/01/06 07:48:48;;;;;;;13.50;4.10;;;5.70;79.80;;;;;;4999599;28;20202;-68
2022/01/06 07:51:17;;;;;;;12.82;4.63;;;5.70;79.80;;;;;;4995550;28;20236;-68
2022/01/06 07:53:45;;;;;;;13.05;4.82;;;5.70;79.80;;;;;;5001221;28;20209;-67
2022/01/06 07:56:13;;;;;;;12.30;4.70;;;5.70;79.60;;;;;;4998877;28;20262;-67
2022/01/06 07:58:41;;;;;;;11.65;5.35;;;5.70;79.80;;;;;;4998185;28;20209;-68
2022/01/06 08:01:10;;;;;;;11.80;4.38;;;5.70;79.80;;;;;;4999258;28;20244;-69
2022/01/06 08:03:38;;;;;;;17.85;5.00;;;5.70;79.90;;;;;;4998108;28;20198;-66
2022/01/06 08:06:06;;;;;;;12.52;4.90;;;5.70;79.80;;;;;;5000999;28;20202;-71
2022/01/06 08:08:35;;;;;;;15.98;4.65;;;5.70;79.80;;;;;;4998236;28;20222;-67
2022/01/06 08:11:04;;;;;;;11.55;4.65;;;5.70;79.90;;;;;;4998866;28;20766;-70
2022/01/06 08:13:32;;;;;;;12.40;4.10;;;5.70;79.80;;;;;;5000907;28;20199;-67
2022/01/06 08:16:00;;;;;;;16.52;5.22;;;5.70;79.80;;;;;;4997535;28;20645;-67
2022/01/06 08:18:28;;;;;;;9.77;4.25;;;5.80;79.90;;;;;;4997376;28;20280;-67
2022/01/06 08:20:56;;;;;;;15.80;4.85;;;5.80;79.90;;;;;;4997168;28;20241;-67
2022/01/06 08:23:24;;;;;;;10.23;4.43;;;5.80;79.60;;;;;;4997503;28;20201;-68
2022/01/06 08:25:55;;;;;;;14.38;4.70;;;5.80;79.80;;;;;;4993919;28;20201;-66
2022/01/06 08:28:23;;;;;;;21.48;5.30;;;5.80;79.80;;;;;;5002917;28;21891;-67
2022/01/06 08:30:51;;;;;;;15.13;5.28;;;5.80;79.80;;;;;;5003602;28;21017;-69
2022/01/06 08:33:19;;;;;;;18.00;5.13;;;5.80;79.80;;;;;;5002879;28;20207;-69
2022/01/06 08:35:47;;;;;;;16.42;5.30;;;5.80;79.50;;;;;;5002768;28;20217;-68
2022/01/06 08:38:16;;;;;;;12.10;4.60;;;5.70;79.60;;;;;;5003257;28;20763;-68
2022/01/06 08:40:44;;;;;;;11.85;5.38;;;5.60;79.60;;;;;;5001271;28;20902;-69
2022/01/06 08:43:13;;;;;;;13.98;4.93;;;5.60;79.80;;;;;;5002140;28;20202;-67
2022/01/06 08:45:41;;;;;;;18.88;4.25;;;5.60;79.90;;;;;;4999481;28;20260;-67
2022/01/06 08:48:09;;;;;;;16.20;5.93;;;5.60;79.90;;;;;;5001959;28;20198;-65
2022/01/06 08:50:37;;;;;;;17.95;4.50;;;5.60;79.80;;;;;;4997285;28;20234;-69
2022/01/06 08:53:05;;;;;;;14.30;5.13;;;5.70;79.80;;;;;;5002957;28;20550;-69
2022/01/06 08:55:35;;;;;;;16.00;5.35;;;5.60;79.60;;;;;;5004021;28;20258;-70
2022/01/06 08:58:03;;;;;;;10.00;4.53;;;5.60;79.80;;;;;;5001156;28;20202;-69
2022/01/06 09:00:33;;;;;;;13.35;4.82;;;5.60;80.00;;;;;;4984198;28;20284;-68
2022/01/06 09:03:01;;;;;;;18.70;4.75;;;5.70;80.10;;;;;;5002388;28;21083;-69
2022/01/06 09:05:30;;;;;;;13.25;4.43;;;5.70;79.90;;;;;;5001354;28;20585;-68
2022/01/06 09:07:58;;;;;;;16.98;4.85;;;5.70;79.70;;;;;;5002622;28;20228;-69
2022/01/06 09:10:29;;;;;;;13.45;5.03;;;5.60;79.80;;;;;;5002647;28;20227;-69
2022/01/06 09:13:17;;;;;;;16.15;5.20;;;5.70;79.80;;;;;;5001261;28;20233;-68
2022/01/06 09:15:48;;;;;;;10.40;4.25;;;5.60;79.80;;;;;;4999463;28;20320;-68
2022/01/06 09:18:16;;;;;;;9.68;4.50;;;5.70;79.90;;;;;;5001803;28;20200;-68
2022/01/06 09:20:44;;;;;;;11.95;4.03;;;5.70;79.90;;;;;;5002891;28;20273;-66
2022/01/06 09:23:13;;;;;;;11.15;4.43;;;5.70;79.80;;;;;;5002987;28;20214;-66
2022/01/06 09:25:41;;;;;;;11.65;4.22;;;5.70;79.90;;;;;;5002452;28;20205;-68
2022/01/06 09:28:09;;;;;;;17.20;5.10;;;5.60;79.80;;;;;;5001918;28;20216;-68
2022/01/06 09:30:38;;;;;;;12.45;4.88;;;5.60;80.00;;;;;;5001950;28;20249;-69
2022/01/06 09:33:08;;;;;;;19.25;4.82;;;5.70;80.00;;;;;;4988808;28;20230;-68
2022/01/06 09:35:36;;;;;;;17.48;4.20;;;5.70;79.90;;;;;;5000282;28;20194;-68
2022/01/06 09:38:04;;;;;;;16.00;5.13;;;5.70;79.80;;;;;;4985260;28;20257;-69
2022/01/06 09:40:32;;;;;;;13.95;5.30;;;5.70;79.90;;;;;;5000915;28;20215;-68
2022/01/06 09:43:00;;;;;;;13.93;5.10;;;5.70;79.80;;;;;;5001489;28;20222;-68
2022/01/06 09:45:28;;;;;;;9.27;4.28;;;5.70;79.90;;;;;;5000107;28;20241;-66
2022/01/06 09:47:57;;;;;;;9.70;4.25;;;5.60;79.50;;;;;;4999743;28;20202;-68
2022/01/06 09:50:26;;;;;;;12.57;4.28;;;5.60;80.00;;;;;;5002482;28;20229;-66
2022/01/06 09:52:55;;;;;;;14.98;4.45;;;5.60;80.00;;;;;;4996608;28;20217;-66
2022/01/06 09:55:23;;;;;;;12.80;4.65;;;5.60;79.50;;;;;;4998300;28;20210;-69
2022/01/06 09:57:57;;;;;;;10.25;5.03;;;5.60;79.40;;;;;;5002790;28;20241;-69
2022/01/06 10:00:25;;;;;;;11.90;4.25;;;5.60;79.40;;;;;;5002552;28;21305;-68
2022/01/06 10:02:54;;;;;;;13.63;4.25;;;5.60;79.70;;;;;;4987337;28;20209;-69
2022/01/06 10:05:23;;;;;;;15.45;5.03;;;5.50;79.00;;;;;;4997418;28;20220;-69
2022/01/06 10:07:53;;;;;;;19.58;5.07;;;5.60;79.50;;;;;;4999810;28;20205;-69
2022/01/06 10:10:25;;;;;;;11.05;4.45;;;5.70;79.60;;;;;;4999284;28;20233;-68
2022/01/06 10:12:56;;;;;;;10.98;5.13;;;5.60;79.40;;;;;;4984386;28;20212;-68
2022/01/06 10:15:26;;;;;;;17.10;4.97;;;5.70;79.80;;;;;;4984988;28;20219;-70
2022/01/06 10:17:55;;;;;;;12.80;4.65;;;5.80;79.60;;;;;;4998191;28;20210;-69
2022/01/06 10:20:26;;;;;;;10.95;4.47;;;5.80;79.80;;;;;;4997481;28;20283;-69
2022/01/06 10:22:58;;;;;;;12.32;4.45;;;5.90;79.60;;;;;;4995297;28;20203;-68
2022/01/06 10:25:30;;;;;;;12.57;4.13;;;6.00;79.60;;;;;;4996365;28;21093;-67
2022/01/06 10:28:20;;;;;;;12.80;5.00;;;6.00;79.00;;;;;;4997988;28;20235;-67
2022/01/06 10:30:49;;;;;;;12.40;4.00;;;5.90;78.80;;;;;;5000318;28;20242;-69
2022/01/06 10:33:19;;;;;;;12.40;5.18;;;6.00;79.40;;;;;;4999799;28;20206;-66
2022/01/06 10:35:49;;;;;;;14.73;5.00;;;6.00;79.00;;;;;;4997916;28;20206;-68
2022/01/06 10:38:27;;;;;;;13.93;4.90;;;6.00;79.20;;;;;;5000264;28;20214;-69
2022/01/06 10:41:09;;;;;;;13.95;5.00;;;6.00;78.90;;;;;;4994907;28;20280;-69
2022/01/06 10:43:37;;;;;;;18.73;5.25;;;6.00;78.60;;;;;;4997113;28;20285;-67
2022/01/06 10:46:05;;;;;;;8.55;4.10;;;5.90;78.90;;;;;;4998279;28;20241;-69
2022/01/06 10:48:33;;;;;;;12.07;4.30;;;5.90;79.10;;;;;;5000092;28;20763;-67
2022/01/06 10:51:02;;;;;;;13.93;4.90;;;5.90;79.00;;;;;;4985077;28;20286;-67
2022/01/06 10:53:32;;;;;;;9.77;4.15;;;6.00;79.20;;;;;;5001255;28;20202;-67
2022/01/06 10:56:02;;;;;;;10.52;4.60;;;6.00;79.20;;;;;;5000163;28;20211;-68
2022/01/06 10:58:31;;;;;;;16.95;5.10;;;6.10;79.20;;;;;;5000220;28;20243;-68
2022/01/06 11:01:02;;;;;;;15.52;4.88;;;6.10;79.20;;;;;;4995923;28;20249;-68
2022/01/06 11:03:33;;;;;;;12.20;4.68;;;6.20;79.30;;;;;;5000845;28;20248;-68
2022/01/06 11:06:03;;;;;;;12.70;4.63;;;6.30;79.20;;;;;;5001693;28;20219;-68
2022/01/06 11:08:36;;;;;;;9.52;4.15;;;6.30;79.10;;;;;;5001957;28;20208;-69
2022/01/06 11:11:26;;;;;;;12.10;4.03;;;6.30;79.00;;;;;;4996326;28;20235;-68
2022/01/06 11:13:54;;;;;;;13.77;4.88;;;6.30;79.00;;;;;;4996470;28;20229;-69
2022/01/06 11:16:22;;;;;;;14.05;4.70;;;6.40;78.70;;;;;;4997487;28;20229;-69
2022/01/06 11:18:52;;;;;;;11.45;4.10;;;6.40;78.70;;;;;;4994528;28;20209;-69
2022/01/06 11:21:25;;;;;;;11.60;4.60;;;6.30;78.00;;;;;;4997261;28;20225;-67
2022/01/06 11:24:09;;;;;;;11.60;4.38;;;6.20;78.00;;;;;;5001215;28;20201;-70
2022/01/06 11:26:37;;;;;;;9.77;4.32;;;6.10;78.10;;;;;;4997446;28;20733;-70
2022/01/06 11:29:05;;;;;;;13.23;4.50;;;6.10;78.40;;;;;;4999081;28;20213;-68
2022/01/06 11:31:40;;;;;;;11.63;4.60;;;6.10;78.60;;;;;;4995370;28;20770;-68
2022/01/06 11:34:14;;;;;;;11.40;4.40;;;6.10;78.80;;;;;;5000690;28;20201;-68
2022/01/06 11:36:43;;;;;;;12.90;5.15;;;6.20;78.70;;;;;;4995883;28;20272;-68
2022/01/06 11:39:23;;;;;;;9.43;5.45;;;6.20;78.70;;;;;;4996154;28;20222;-68
2022/01/06 11:41:52;;;;;;;13.82;4.40;;;6.30;78.60;;;;;;4995620;28;20199;-67
2022/01/06 11:44:22;;;;;;;8.77;4.15;;;6.30;78.30;;;;;;4997300;28;20211;-69
2022/01/06 11:46:53;;;;;;;8.55;3.65;;;6.30;77.10;;;;;;4992943;28;20755;-68
2022/01/06 11:49:35;;;;;;;15.88;3.80;;;6.30;77.60;;;;;;4994002;28;20288;-71
2022/01/06 11:52:09;;;;;;;12.90;3.85;;;6.30;77.60;;;;;;4998351;28;20852;-68
2022/01/06 11:57:35;;;;;;;8.57;3.90;;;6.30;77.30;;;;;;5067471;27;20569;-70
2022/01/06 12:00:17;;;;;;;9.32;4.00;;;6.20;76.90;;;;;;5026042;28;20612;-73
2022/01/06 12:03:00;;;;;;;10.48;4.07;;;6.20;77.50;;;;;;4989634;28;20293;-68
2022/01/06 12:05:40;;;;;;;7.00;2.92;;;6.20;77.60;;;;;;4973051;28;20198;-69
2022/01/06 12:08:08;;;;;;;10.00;4.32;;;6.20;77.70;;;;;;4973846;28;20283;-69
2022/01/06 12:10:40;;;;;;;8.63;4.40;;;6.20;77.30;;;;;;4974942;28;20337;-71
2022/01/06 12:13:10;;;;;;;9.32;4.43;;;6.20;77.30;;;;;;4975271;28;21166;-71
2022/01/06 12:15:49;;;;;;;10.82;3.45;;;6.20;76.00;;;;;;4971568;28;20282;-71
2022/01/06 12:18:21;;;;;;;10.98;4.07;;;6.10;76.30;;;;;;4973377;28;20291;-68
2022/01/06 12:20:51;;;;;;;8.00;3.70;;;6.10;76.90;;;;;;4969856;28;20227;-69
2022/01/06 12:23:20;;;;;;;6.88;3.40;;;6.10;75.90;;;;;;4970903;28;20215;-68
2022/01/06 12:25:55;;;;;;;10.73;3.67;;;6.10;76.90;;;;;;4968134;28;20206;-70
2022/01/06 12:28:25;;;;;;;9.40;3.55;;;6.10;75.70;;;;;;4976073;28;20214;-69
2022/01/06 12:30:58;;;;;;;7.93;3.47;;;6.10;76.00;;;;;;4970254;28;20599;-67
2022/01/06 12:33:26;;;;;;;13.02;4.65;;;6.10;76.40;;;;;;4971455;28;20195;-69
2022/01/06 12:35:56;;;;;;;7.22;3.08;;;6.10;76.60;;;;;;4986522;28;20282;-71
2022/01/06 12:38:30;;;;;;;8.85;3.50;;;6.20;76.20;;;;;;4979428;28;20208;-70
2022/01/06 12:40:59;;;;;;;9.38;3.85;;;6.20;76.70;;;;;;4985312;28;20232;-71
2022/01/06 12:43:39;;;;;;;10.07;3.95;;;6.20;76.40;;;;;;4977117;28;20282;-69
2022/01/06 12:46:09;;;;;;;12.95;4.18;;;6.20;75.50;;;;;;4990666;28;20226;-69
2022/01/06 12:48:39;;;;;;;9.35;4.15;;;6.20;75.90;;;;;;4972130;28;20200;-71
2022/01/06 12:51:09;;;;;;;9.63;3.60;;;6.20;75.50;;;;;;4972946;28;20229;-70
2022/01/06 12:53:40;;;;;;;8.23;3.80;;;6.20;76.20;;;;;;4975562;28;20561;-70
2022/01/06 12:56:23;;;;;;;13.55;3.80;;;6.20;76.00;;;;;;4973270;28;20223;-73
2022/01/06 12:58:54;;;;;;;9.98;4.22;;;6.30;76.30;;;;;;4975755;28;20203;-70
2022/01/06 13:01:23;;;;;;;10.52;3.78;;;6.30;76.30;;;;;;4988657;28;20238;-70
2022/01/06 13:03:54;;;;;;;8.73;3.65;;;6.40;76.00;;;;;;4986260;28;20662;-69
2022/01/06 13:06:23;;;;;;;7.43;3.17;;;6.30;74.30;;;;;;4975613;28;20222;-68
2022/01/06 13:08:55;;;;;;;13.27;4.80;;;6.30;75.80;;;;;;4961669;28;20267;-68
2022/01/06 13:11:25;;;;;;;10.10;3.40;;;6.40;75.70;;;;;;4975739;28;20235;-68